Time;durP1;ratioP1;P1;durP2;ratioP2;P2;SDS_P1;SDS_P2;PMS_P1;PMS_P2;Temp;Humidity;BMP_temperature;BMP_pressure;BME280_temperature;BME280_humidity;BME280_pressure;Samples;Min_cycle;Max_cycle;Signal;HPM_P1;HPM_P2
2024/02/27 00:02:09;;;;;;;8.18;2.50;;;7.30;99.90;;;;;;4912831;29;20099;-63
2024/02/27 00:04:35;;;;;;;7.53;2.55;;;7.30;99.90;;;;;;4912979;29;20142;-63
2024/02/27 00:07:03;;;;;;;5.82;2.88;;;7.30;99.90;;;;;;4912881;29;20080;-63
2024/02/27 00:09:30;;;;;;;8.30;2.42;;;7.30;99.90;;;;;;4911556;29;20058;-63
2024/02/27 00:11:57;;;;;;;4.35;2.03;;;7.20;99.90;;;;;;4912633;29;20083;-63
2024/02/27 00:14:24;;;;;;;5.55;2.03;;;7.20;99.90;;;;;;4915779;29;20059;-64
2024/02/27 00:16:51;;;;;;;4.45;2.47;;;7.20;99.90;;;;;;4913105;29;20291;-63
2024/02/27 00:19:18;;;;;;;6.53;2.63;;;7.10;99.90;;;;;;4912549;29;20055;-63
2024/02/27 00:21:45;;;;;;;7.15;3.00;;;7.00;99.90;;;;;;4911942;29;20044;-63
2024/02/27 00:24:11;;;;;;;5.93;3.55;;;7.00;99.90;;;;;;4915530;29;20079;-63
2024/02/27 00:26:38;;;;;;;6.82;3.17;;;7.00;99.90;;;;;;4912641;29;20552;-63
2024/02/27 00:29:05;;;;;;;7.38;3.42;;;6.90;99.90;;;;;;4912713;29;20500;-64
2024/02/27 00:31:31;;;;;;;5.55;3.00;;;7.00;99.90;;;;;;4912748;29;20048;-63
2024/02/27 00:33:58;;;;;;;4.50;2.88;;;7.00;99.90;;;;;;4912041;29;20049;-63
2024/02/27 00:36:25;;;;;;;5.97;2.63;;;7.00;99.90;;;;;;4913335;29;20043;-63
2024/02/27 00:38:53;;;;;;;4.35;2.80;;;6.80;99.90;;;;;;4912439;29;20050;-63
2024/02/27 00:41:20;;;;;;;5.88;2.83;;;6.90;99.90;;;;;;4914586;29;20059;-63
2024/02/27 00:43:47;;;;;;;4.20;2.28;;;6.80;99.90;;;;;;4911916;29;20055;-63
2024/02/27 00:46:14;;;;;;;3.63;2.20;;;6.70;99.90;;;;;;4910967;29;20523;-63
2024/02/27 00:48:40;;;;;;;3.38;2.17;;;6.80;99.90;;;;;;4911993;29;20055;-63
2024/02/27 00:51:07;;;;;;;4.22;2.35;;;6.70;99.90;;;;;;4911979;29;20052;-63
2024/02/27 00:53:34;;;;;;;4.38;2.20;;;6.70;99.90;;;;;;4911904;29;20484;-63
2024/02/27 00:56:01;;;;;;;3.38;2.33;;;6.70;99.90;;;;;;4912462;29;20048;-63
2024/02/27 00:58:27;;;;;;;3.10;2.15;;;6.70;99.90;;;;;;4912221;29;20462;-63
2024/02/27 01:00:54;;;;;;;2.70;2.30;;;6.70;99.90;;;;;;4911912;29;20063;-63
2024/02/27 01:03:21;;;;;;;2.20;1.75;;;6.60;99.90;;;;;;4913672;29;20123;-63
2024/02/27 01:05:48;;;;;;;3.78;2.28;;;6.60;99.90;;;;;;4911277;29;20091;-63
2024/02/27 01:08:15;;;;;;;5.35;3.15;;;6.60;99.90;;;;;;4911562;29;20630;-63
2024/02/27 01:10:42;;;;;;;5.03;3.13;;;6.50;99.90;;;;;;4911378;29;20401;-63
2024/02/27 01:13:08;;;;;;;3.70;2.42;;;6.50;99.90;;;;;;4911848;29;20068;-63
2024/02/27 01:15:35;;;;;;;3.90;2.15;;;6.50;99.90;;;;;;4911684;29;20104;-63
2024/02/27 01:18:02;;;;;;;3.88;2.00;;;6.50;99.90;;;;;;4911502;29;20044;-63
2024/02/27 01:20:29;;;;;;;4.05;2.28;;;6.50;99.90;;;;;;4911043;29;20089;-63
2024/02/27 01:22:56;;;;;;;8.25;2.20;;;6.50;99.90;;;;;;4910845;29;20048;-63
2024/02/27 01:25:23;;;;;;;5.32;2.00;;;6.50;99.90;;;;;;4907437;29;20071;-63
2024/02/27 01:27:49;;;;;;;5.40;1.83;;;6.50;99.90;;;;;;4911154;29;20107;-63
2024/02/27 01:30:17;;;;;;;6.30;1.88;;;6.40;99.90;;;;;;4902227;29;20564;-63
2024/02/27 01:32:45;;;;;;;4.18;2.00;;;6.40;99.90;;;;;;4911918;29;20452;-63
2024/02/27 01:35:12;;;;;;;3.00;1.98;;;6.30;99.90;;;;;;4912031;29;20095;-63
2024/02/27 01:37:39;;;;;;;5.57;1.80;;;6.30;99.90;;;;;;4911898;29;20060;-63
2024/02/27 01:40:07;;;;;;;3.05;1.77;;;6.30;99.90;;;;;;4911150;29;20083;-63
2024/02/27 01:42:33;;;;;;;3.20;2.10;;;6.30;99.90;;;;;;4911255;29;20104;-63
2024/02/27 01:45:01;;;;;;;4.95;2.10;;;6.30;99.90;;;;;;4911159;29;20052;-63
2024/02/27 01:47:28;;;;;;;4.03;1.92;;;6.30;99.90;;;;;;4911878;29;20147;-63
2024/02/27 01:49:55;;;;;;;10.07;2.05;;;6.20;99.90;;;;;;4910845;29;20139;-63
2024/02/27 01:52:22;;;;;;;6.15;2.45;;;6.10;99.90;;;;;;4911594;29;20052;-63
2024/02/27 01:54:51;;;;;;;3.78;1.60;;;6.10;99.90;;;;;;4910895;29;20696;-63
2024/02/27 01:57:21;;;;;;;3.00;1.98;;;6.10;99.90;;;;;;4912796;29;20052;-63
2024/02/27 01:59:48;;;;;;;2.88;2.13;;;6.20;99.90;;;;;;4911097;29;20068;-63
2024/02/27 02:02:15;;;;;;;4.82;1.90;;;6.30;99.90;;;;;;4911734;29;20050;-63
2024/02/27 02:04:42;;;;;;;3.65;2.13;;;6.40;99.90;;;;;;4911210;29;20131;-63
2024/02/27 02:07:09;;;;;;;2.78;1.77;;;6.50;99.90;;;;;;4912468;29;20056;-63
2024/02/27 02:09:36;;;;;;;2.75;2.00;;;6.60;99.90;;;;;;4913159;29;20091;-63
2024/02/27 02:12:05;;;;;;;8.02;1.85;;;6.70;99.90;;;;;;4911147;29;20056;-63
2024/02/27 02:14:32;;;;;;;4.70;2.00;;;6.70;99.90;;;;;;4910789;29;20100;-63
2024/02/27 02:17:01;;;;;;;7.50;1.98;;;6.80;99.90;;;;;;4910647;29;20044;-63
2024/02/27 02:19:28;;;;;;;2.45;1.88;;;6.80;99.90;;;;;;4911111;29;20044;-63
2024/02/27 02:21:56;;;;;;;2.58;1.58;;;6.90;99.90;;;;;;4910531;29;20048;-63
2024/02/27 02:24:26;;;;;;;2.85;2.10;;;6.90;99.90;;;;;;4910934;29;20060;-63
2024/02/27 02:26:55;;;;;;;5.10;2.10;;;6.90;99.90;;;;;;4910322;29;20056;-63
2024/02/27 02:29:22;;;;;;;5.50;1.67;;;6.90;99.90;;;;;;4911030;29;20052;-63
2024/02/27 02:31:49;;;;;;;2.25;1.70;;;7.00;99.90;;;;;;4912814;29;20060;-63
2024/02/27 02:34:18;;;;;;;6.20;1.95;;;7.00;99.90;;;;;;4914643;29;20052;-63
2024/02/27 02:36:45;;;;;;;4.68;1.80;;;6.90;99.90;;;;;;4914064;29;20044;-63
2024/02/27 02:39:12;;;;;;;3.15;1.77;;;6.80;99.90;;;;;;4914228;29;20083;-63
2024/02/27 02:41:39;;;;;;;2.75;1.80;;;6.80;99.90;;;;;;4914215;29;20083;-63
2024/02/27 02:44:06;;;;;;;3.90;1.65;;;6.70;99.90;;;;;;4914537;29;20631;-63
2024/02/27 02:46:33;;;;;;;3.50;1.50;;;6.50;99.90;;;;;;4914658;29;20083;-63
2024/02/27 02:49:01;;;;;;;1.65;1.42;;;6.50;99.90;;;;;;4913818;29;20052;-63
2024/02/27 02:51:31;;;;;;;3.53;1.80;;;6.50;99.90;;;;;;4914486;29;20052;-63
2024/02/27 02:53:57;;;;;;;4.07;2.15;;;6.50;99.90;;;;;;4913604;29;20165;-63
2024/02/27 02:56:24;;;;;;;3.92;2.15;;;6.40;99.90;;;;;;4914127;29;20044;-63
2024/02/27 02:58:51;;;;;;;2.25;1.50;;;6.40;99.90;;;;;;4913388;29;20056;-63
2024/02/27 03:01:18;;;;;;;2.47;1.88;;;6.40;99.90;;;;;;4913971;29;20052;-63
2024/02/27 03:03:45;;;;;;;4.07;1.55;;;6.40;99.90;;;;;;4913963;29;20131;-63
2024/02/27 03:06:11;;;;;;;5.00;1.80;;;6.40;99.90;;;;;;4914018;29;20051;-63
2024/02/27 03:08:38;;;;;;;3.45;1.90;;;6.30;99.90;;;;;;4913614;29;20060;-63
2024/02/27 03:11:05;;;;;;;3.08;1.75;;;6.30;99.90;;;;;;4913497;29;20050;-63
2024/02/27 03:13:32;;;;;;;4.32;2.10;;;6.30;99.90;;;;;;4914083;29;20132;-63
2024/02/27 03:15:59;;;;;;;3.05;1.90;;;6.40;99.90;;;;;;4913409;29;20135;-63
2024/02/27 03:18:26;;;;;;;4.30;2.10;;;6.40;99.90;;;;;;4913954;29;20547;-63
2024/02/27 03:20:53;;;;;;;6.53;1.95;;;6.50;99.90;;;;;;4912939;29;20050;-63
2024/02/27 03:23:19;;;;;;;2.97;1.67;;;6.60;99.90;;;;;;4914001;29;20557;-63
2024/02/27 03:25:46;;;;;;;6.53;2.17;;;6.60;99.90;;;;;;4912892;29;20110;-63
2024/02/27 03:28:13;;;;;;;6.18;2.30;;;6.70;99.90;;;;;;4913533;29;20420;-63
2024/02/27 03:30:40;;;;;;;5.20;2.00;;;6.70;99.90;;;;;;4911467;29;20080;-63
2024/02/27 03:33:07;;;;;;;2.92;1.90;;;6.80;99.90;;;;;;4913570;29;20055;-63
2024/02/27 03:35:36;;;;;;;3.00;2.00;;;6.80;99.90;;;;;;4913416;29;20051;-63
2024/02/27 03:38:03;;;;;;;6.07;1.98;;;6.80;99.90;;;;;;4913158;29;20540;-63
2024/02/27 03:40:30;;;;;;;7.53;4.35;;;6.80;99.90;;;;;;4912924;29;20095;-63
2024/02/27 03:42:56;;;;;;;6.10;4.75;;;6.90;99.90;;;;;;4913082;29;20116;-63
2024/02/27 03:45:23;;;;;;;5.72;2.45;;;6.90;99.90;;;;;;4913975;29;20052;-63
2024/02/27 03:47:50;;;;;;;3.40;2.60;;;6.90;99.90;;;;;;4912787;29;20052;-63
2024/02/27 03:50:17;;;;;;;8.30;5.50;;;6.80;99.90;;;;;;4913232;29;20044;-63
2024/02/27 03:52:44;;;;;;;9.45;6.22;;;6.90;99.90;;;;;;4912880;29;20071;-63
2024/02/27 03:55:10;;;;;;;8.13;5.50;;;6.90;99.90;;;;;;4913496;29;20496;-63
2024/02/27 03:57:37;;;;;;;7.35;5.45;;;7.00;99.90;;;;;;4915126;29;20639;-63
2024/02/27 04:00:04;;;;;;;8.27;5.65;;;7.00;99.90;;;;;;4912160;29;20051;-63
2024/02/27 04:02:31;;;;;;;7.13;5.68;;;7.00;99.90;;;;;;4913251;29;20063;-63
2024/02/27 04:04:58;;;;;;;6.95;5.13;;;7.00;99.90;;;;;;4912261;29;20481;-63
2024/02/27 04:07:25;;;;;;;7.95;4.88;;;7.10;99.90;;;;;;4913107;29;20127;-63
2024/02/27 04:09:51;;;;;;;8.15;5.40;;;7.10;99.90;;;;;;4912649;29;20052;-63
2024/02/27 04:12:18;;;;;;;7.50;5.30;;;7.10;99.90;;;;;;4913031;29;20104;-63
2024/02/27 04:14:45;;;;;;;9.93;5.70;;;7.20;99.90;;;;;;4912934;29;20573;-63
2024/02/27 04:17:12;;;;;;;10.43;4.93;;;7.20;99.90;;;;;;4912900;29;20091;-62
2024/02/27 04:19:38;;;;;;;7.00;5.00;;;7.10;99.90;;;;;;4908810;29;20052;-63
2024/02/27 04:22:05;;;;;;;7.63;5.38;;;7.10;99.90;;;;;;4911945;29;20044;-63
2024/02/27 04:24:32;;;;;;;6.93;5.65;;;7.10;99.90;;;;;;4909067;29;20074;-63
2024/02/27 04:26:59;;;;;;;10.15;5.68;;;7.10;99.90;;;;;;4912394;29;20063;-63
2024/02/27 04:29:26;;;;;;;7.93;5.53;;;7.10;99.90;;;;;;4911647;29;20063;-63
2024/02/27 04:31:52;;;;;;;8.68;6.15;;;7.10;99.90;;;;;;4911932;29;20090;-63
2024/02/27 04:34:19;;;;;;;9.32;6.20;;;7.10;99.90;;;;;;4912245;29;20048;-63
2024/02/27 04:36:49;;;;;;;7.97;5.85;;;7.10;99.90;;;;;;4911568;29;20091;-63
2024/02/27 04:39:16;;;;;;;10.38;5.50;;;7.10;99.90;;;;;;4912757;29;20052;-63
2024/02/27 04:41:43;;;;;;;10.85;5.85;;;7.00;99.90;;;;;;4912164;29;20548;-63
2024/02/27 04:44:11;;;;;;;10.52;6.28;;;7.00;99.90;;;;;;4911987;29;20052;-63
2024/02/27 04:46:38;;;;;;;8.25;6.13;;;7.00;99.90;;;;;;4911903;29;20083;-63
2024/02/27 04:49:05;;;;;;;9.57;6.43;;;7.00;99.90;;;;;;4910638;29;20153;-63
2024/02/27 04:51:32;;;;;;;10.40;7.38;;;7.00;99.90;;;;;;4911616;29;20131;-63
2024/02/27 04:53:58;;;;;;;8.93;6.07;;;7.00;99.90;;;;;;4912184;29;20492;-63
2024/02/27 04:56:25;;;;;;;11.93;6.68;;;7.00;99.90;;;;;;4911692;29;20087;-63
2024/02/27 04:58:52;;;;;;;11.45;6.28;;;7.00;99.90;;;;;;4911298;29;20052;-63
2024/02/27 05:01:19;;;;;;;10.50;7.22;;;7.00;99.90;;;;;;4911600;29;20449;-63
2024/02/27 05:03:46;;;;;;;10.02;6.93;;;7.00;99.90;;;;;;4911424;29;20056;-64
2024/02/27 05:06:13;;;;;;;10.60;6.43;;;7.00;99.90;;;;;;4909409;29;20048;-62
2024/02/27 05:08:40;;;;;;;12.50;7.22;;;7.00;99.90;;;;;;4913850;29;20086;-63
2024/02/27 05:11:06;;;;;;;9.88;6.53;;;7.00;99.90;;;;;;4914114;29;20060;-63
2024/02/27 05:13:33;;;;;;;11.27;6.30;;;7.00;99.90;;;;;;4916643;29;20079;-63
2024/02/27 05:16:00;;;;;;;8.20;6.53;;;7.10;99.90;;;;;;4916849;29;20135;-63
2024/02/27 05:18:28;;;;;;;10.98;6.95;;;7.10;99.90;;;;;;4906487;29;20095;-63
2024/02/27 05:20:55;;;;;;;8.75;6.90;;;7.10;99.90;;;;;;4912638;29;20568;-63
2024/02/27 05:23:22;;;;;;;7.93;5.57;;;7.10;99.90;;;;;;4914352;29;20043;-63
2024/02/27 05:25:49;;;;;;;11.82;6.53;;;7.20;99.90;;;;;;4916850;29;20079;-63
2024/02/27 05:28:16;;;;;;;8.93;5.32;;;7.20;99.90;;;;;;4904828;29;20056;-63
2024/02/27 05:30:44;;;;;;;8.85;6.05;;;7.20;99.90;;;;;;4911965;29;20103;-63
2024/02/27 05:33:11;;;;;;;8.73;6.00;;;7.20;99.90;;;;;;4915117;29;20052;-63
2024/02/27 05:35:38;;;;;;;10.35;6.15;;;7.20;99.90;;;;;;4911635;29;20052;-63
2024/02/27 05:38:06;;;;;;;7.78;5.45;;;7.20;99.90;;;;;;4911447;29;20070;-63
2024/02/27 05:40:32;;;;;;;8.32;5.25;;;7.20;99.90;;;;;;4911332;29;20048;-63
2024/02/27 05:42:59;;;;;;;6.82;4.90;;;7.10;99.90;;;;;;4906253;29;20597;-63
2024/02/27 05:45:26;;;;;;;7.35;4.72;;;7.20;99.90;;;;;;4911287;29;20141;-63
2024/02/27 05:47:53;;;;;;;8.57;5.15;;;7.10;99.90;;;;;;4911219;29;20060;-63
2024/02/27 05:50:19;;;;;;;10.63;4.80;;;7.20;99.90;;;;;;4925831;29;20048;-63
2024/02/27 05:52:47;;;;;;;8.95;4.63;;;7.20;99.90;;;;;;4911345;29;20044;-63
2024/02/27 05:55:14;;;;;;;8.45;5.13;;;7.20;99.90;;;;;;4913757;29;20048;-63
2024/02/27 05:57:41;;;;;;;11.15;5.28;;;7.30;99.90;;;;;;4916277;29;20054;-63
2024/02/27 06:00:08;;;;;;;8.20;4.82;;;7.30;99.90;;;;;;4919763;29;20059;-63
2024/02/27 06:02:36;;;;;;;7.90;4.88;;;7.40;99.90;;;;;;4910446;29;20566;-63
2024/02/27 06:05:03;;;;;;;11.95;4.95;;;7.40;99.90;;;;;;4910588;29;20075;-63
2024/02/27 06:07:29;;;;;;;10.60;5.53;;;7.40;99.90;;;;;;4914340;29;20539;-63
2024/02/27 06:09:56;;;;;;;8.50;5.20;;;7.30;99.90;;;;;;4909440;29;20049;-61
2024/02/27 06:12:23;;;;;;;6.75;4.82;;;7.30;99.90;;;;;;4912239;29;20456;-61
2024/02/27 06:14:50;;;;;;;10.10;6.60;;;7.20;99.90;;;;;;4909952;29;20059;-61
2024/02/27 06:17:17;;;;;;;14.43;10.82;;;7.20;99.90;;;;;;4910301;29;20056;-61
2024/02/27 06:19:49;;;;;;;15.13;8.60;;;7.20;99.90;;;;;;4910181;29;20512;-61
2024/02/27 06:22:19;;;;;;;15.05;13.38;;;7.20;99.90;;;;;;4905788;29;20048;-61
2024/02/27 06:24:46;;;;;;;10.10;8.43;;;7.30;99.90;;;;;;4911185;29;20144;-61
2024/02/27 06:27:12;;;;;;;9.10;8.13;;;7.30;99.90;;;;;;4911244;29;20055;-61
2024/02/27 06:29:39;;;;;;;9.45;8.23;;;7.30;99.90;;;;;;4910920;29;20056;-61
2024/02/27 06:32:10;;;;;;;9.73;6.35;;;7.30;99.90;;;;;;4910906;29;20056;-61
2024/02/27 06:34:38;;;;;;;10.02;6.63;;;7.30;99.90;;;;;;4910704;29;20151;-61
2024/02/27 06:37:05;;;;;;;9.98;7.13;;;7.40;99.90;;;;;;4909951;29;20504;-61
2024/02/27 06:39:32;;;;;;;10.18;5.55;;;7.30;99.90;;;;;;4910826;29;20056;-61
2024/02/27 06:41:59;;;;;;;9.30;5.68;;;7.30;99.90;;;;;;4911228;29;20048;-61
2024/02/27 06:44:26;;;;;;;11.77;6.15;;;7.30;99.90;;;;;;4911333;29;20055;-61
2024/02/27 06:46:53;;;;;;;8.80;5.80;;;7.30;99.90;;;;;;4911091;29;20052;-61
2024/02/27 06:49:20;;;;;;;6.72;5.25;;;7.30;99.90;;;;;;4907499;29;20576;-61
2024/02/27 06:51:49;;;;;;;9.05;5.68;;;7.30;99.90;;;;;;4911233;29;20056;-61
2024/02/27 06:54:17;;;;;;;10.57;5.68;;;7.30;99.90;;;;;;4910754;29;20044;-61
2024/02/27 06:56:44;;;;;;;9.65;5.78;;;7.30;99.90;;;;;;4911185;29;20052;-61
2024/02/27 06:59:10;;;;;;;7.70;4.95;;;7.40;99.90;;;;;;4910464;29;20770;-61
2024/02/27 07:01:37;;;;;;;8.88;5.43;;;7.40;99.90;;;;;;4910740;29;20048;-61
2024/02/27 07:04:04;;;;;;;10.02;5.85;;;7.40;99.90;;;;;;4910693;29;20067;-61
2024/02/27 07:06:31;;;;;;;9.68;5.30;;;7.40;99.90;;;;;;4910701;29;20135;-61
2024/02/27 07:08:58;;;;;;;8.48;5.38;;;7.40;99.90;;;;;;4910584;29;20052;-61
2024/02/27 07:11:26;;;;;;;8.80;5.88;;;7.50;99.90;;;;;;4910605;29;20481;-61
2024/02/27 07:13:54;;;;;;;7.22;5.30;;;7.50;99.90;;;;;;4910985;29;20048;-61
2024/02/27 07:16:20;;;;;;;8.75;5.57;;;7.50;99.90;;;;;;4912318;29;20452;-60
2024/02/27 07:18:48;;;;;;;9.05;5.90;;;7.60;99.90;;;;;;4914092;29;20052;-61
2024/02/27 07:21:15;;;;;;;6.72;5.53;;;7.70;99.90;;;;;;4915361;29;20108;-60
2024/02/27 07:23:44;;;;;;;7.00;5.20;;;7.80;99.90;;;;;;4914329;29;20127;-61
2024/02/27 07:26:11;;;;;;;6.82;4.85;;;7.90;99.90;;;;;;4913509;29;20060;-60
2024/02/27 07:28:38;;;;;;;11.55;5.93;;;7.80;99.90;;;;;;4914305;29;20056;-61
2024/02/27 07:31:04;;;;;;;7.05;5.07;;;7.90;99.90;;;;;;4913428;29;20413;-60
2024/02/27 07:33:31;;;;;;;9.57;5.90;;;7.80;99.90;;;;;;4913815;29;20052;-61
2024/02/27 07:35:58;;;;;;;6.63;5.10;;;7.90;99.90;;;;;;4913075;29;20059;-61
2024/02/27 07:38:25;;;;;;;9.55;6.05;;;7.80;99.90;;;;;;4914565;29;20416;-61
2024/02/27 07:40:51;;;;;;;11.88;5.78;;;8.00;99.90;;;;;;4913390;29;20106;-62
2024/02/27 07:43:18;;;;;;;12.18;6.10;;;8.00;99.90;;;;;;4912845;29;20432;-61
2024/02/27 07:45:51;;;;;;;10.40;6.72;;;8.10;99.90;;;;;;4913769;29;20108;-61
2024/02/27 07:48:19;;;;;;;8.30;5.95;;;8.10;99.90;;;;;;4913055;29;20074;-61
2024/02/27 07:50:46;;;;;;;9.95;6.25;;;8.20;99.90;;;;;;4913926;29;20047;-61
2024/02/27 07:53:13;;;;;;;8.55;5.60;;;8.10;99.90;;;;;;4913564;29;20040;-62
2024/02/27 07:55:41;;;;;;;9.68;6.07;;;8.20;99.90;;;;;;4913706;29;20052;-61
2024/02/27 07:58:09;;;;;;;7.55;5.72;;;8.10;99.90;;;;;;4913462;29;20100;-61
2024/02/27 08:00:36;;;;;;;8.10;6.10;;;8.30;99.90;;;;;;4912721;29;20124;-62
2024/02/27 08:03:04;;;;;;;9.32;6.72;;;8.30;99.90;;;;;;4913527;29;20096;-61
2024/02/27 08:05:32;;;;;;;10.65;6.10;;;8.40;99.90;;;;;;4913413;29;20048;-61
2024/02/27 08:07:59;;;;;;;8.90;5.60;;;8.30;99.90;;;;;;4913357;29;20429;-61
2024/02/27 08:10:26;;;;;;;9.15;5.80;;;8.40;99.90;;;;;;4912223;29;20178;-60
2024/02/27 08:12:53;;;;;;;6.65;5.22;;;8.30;99.90;;;;;;4913248;29;20103;-62
2024/02/27 08:15:20;;;;;;;11.32;5.75;;;8.30;99.90;;;;;;4912810;29;20074;-61
2024/02/27 08:17:46;;;;;;;8.65;5.10;;;8.30;99.90;;;;;;4913259;29;20052;-61
2024/02/27 08:20:13;;;;;;;10.45;6.25;;;8.30;99.90;;;;;;4911156;29;20052;-61
2024/02/27 08:22:40;;;;;;;8.75;5.88;;;8.30;99.90;;;;;;4913445;29;20520;-60
2024/02/27 08:25:07;;;;;;;10.45;6.25;;;8.30;99.90;;;;;;4912377;29;20059;-61
2024/02/27 08:27:35;;;;;;;8.18;5.93;;;8.30;99.90;;;;;;4911895;29;20800;-61
2024/02/27 08:30:04;;;;;;;9.48;6.35;;;8.40;99.90;;;;;;4912196;29;20394;-61
2024/02/27 08:32:31;;;;;;;10.20;6.10;;;8.60;99.90;;;;;;4913066;29;20056;-60
2024/02/27 08:37:49;;;;;;;12.85;6.53;;;8.70;99.90;;;;;;4926047;29;20063;-63
2024/02/27 08:40:15;;;;;;;10.82;7.15;;;8.60;99.90;;;;;;4917184;29;20080;-63
2024/02/27 08:42:42;;;;;;;11.35;7.20;;;8.50;99.90;;;;;;4919695;29;20056;-63
2024/02/27 08:45:09;;;;;;;10.77;8.07;;;8.50;99.90;;;;;;4916103;29;20504;-63
2024/02/27 08:47:36;;;;;;;14.25;7.75;;;8.70;99.90;;;;;;4927223;29;20722;-63
2024/02/27 08:50:04;;;;;;;13.23;8.27;;;8.60;99.90;;;;;;4916507;29;20142;-62
2024/02/27 08:52:31;;;;;;;12.07;8.40;;;8.60;99.90;;;;;;4915841;29;20118;-63
2024/02/27 08:54:58;;;;;;;13.88;7.32;;;8.50;99.90;;;;;;4924188;29;20055;-63
2024/02/27 08:57:25;;;;;;;13.05;7.65;;;8.60;99.90;;;;;;4920454;29;20090;-63
2024/02/27 08:59:51;;;;;;;14.25;9.50;;;8.60;99.90;;;;;;4919919;29;20077;-63
2024/02/27 09:02:18;;;;;;;16.55;10.48;;;8.60;99.90;;;;;;4916443;29;20120;-63
2024/02/27 09:04:45;;;;;;;14.90;10.50;;;8.50;99.90;;;;;;4916016;29;20436;-63
2024/02/27 09:07:12;;;;;;;15.07;10.82;;;8.40;99.90;;;;;;4916284;29;20056;-63
2024/02/27 09:09:39;;;;;;;16.40;10.52;;;8.40;99.90;;;;;;4914691;29;20477;-62
2024/02/27 09:12:06;;;;;;;20.63;12.07;;;8.40;99.90;;;;;;4922994;29;20528;-62
2024/02/27 09:14:33;;;;;;;14.90;10.70;;;8.40;99.90;;;;;;4921368;29;20048;-63
2024/02/27 09:17:00;;;;;;;17.30;12.32;;;8.30;99.90;;;;;;4916674;29;20080;-63
2024/02/27 09:19:26;;;;;;;20.75;13.38;;;8.30;99.90;;;;;;4915190;29;20044;-63
2024/02/27 09:21:53;;;;;;;20.20;12.00;;;8.30;99.90;;;;;;4916134;29;20092;-62
2024/02/27 09:24:21;;;;;;;19.50;13.35;;;8.20;99.90;;;;;;4916878;29;20181;-62
2024/02/27 09:26:47;;;;;;;19.10;12.43;;;8.30;99.90;;;;;;4916882;29;20071;-63
2024/02/27 09:29:15;;;;;;;22.95;15.00;;;8.20;99.90;;;;;;4915889;29;20167;-62
2024/02/27 09:31:45;;;;;;;21.40;14.23;;;8.20;99.90;;;;;;4916336;29;20052;-62
2024/02/27 09:34:12;;;;;;;26.38;15.82;;;8.40;99.90;;;;;;4915702;29;20135;-62
2024/02/27 09:36:39;;;;;;;24.88;15.23;;;8.50;99.90;;;;;;4915149;29;20048;-63
2024/02/27 09:39:07;;;;;;;22.15;15.80;;;8.30;99.90;;;;;;4916046;29;20505;-62
2024/02/27 09:41:36;;;;;;;24.45;16.23;;;8.40;99.90;;;;;;4916148;29;20052;-63
2024/02/27 09:44:04;;;;;;;27.30;16.48;;;8.60;99.90;;;;;;4919362;29;20524;-63
2024/02/27 09:46:33;;;;;;;24.65;16.30;;;8.70;99.90;;;;;;4915570;29;20431;-64
2024/02/27 09:49:02;;;;;;;22.40;16.30;;;8.70;99.90;;;;;;4918274;29;20063;-63
2024/02/27 09:51:31;;;;;;;24.45;15.73;;;8.60;99.90;;;;;;4915194;29;20060;-64
2024/02/27 09:54:00;;;;;;;24.33;16.13;;;8.70;99.90;;;;;;4914853;29;20074;-64
2024/02/27 09:56:27;;;;;;;23.95;16.48;;;8.60;99.90;;;;;;4921470;29;20047;-64
2024/02/27 09:58:54;;;;;;;26.80;16.80;;;8.60;99.90;;;;;;4922059;29;20100;-63
2024/02/27 10:01:22;;;;;;;28.33;17.85;;;8.70;99.90;;;;;;4921304;29;20048;-63
2024/02/27 10:03:51;;;;;;;26.25;17.02;;;8.70;99.90;;;;;;4918851;29;20535;-63
2024/02/27 10:06:21;;;;;;;27.33;18.17;;;8.70;99.90;;;;;;4920466;29;20055;-64
2024/02/27 10:08:57;;;;;;;26.13;17.50;;;8.70;99.90;;;;;;4926743;29;20269;-64
2024/02/27 10:11:23;;;;;;;27.13;19.27;;;8.80;99.90;;;;;;4921206;29;20083;-65
2024/02/27 10:13:50;;;;;;;25.40;18.38;;;8.80;99.90;;;;;;4916999;29;20049;-65
2024/02/27 10:16:22;;;;;;;28.38;17.90;;;8.80;99.90;;;;;;4917976;29;20091;-65
2024/02/27 10:18:49;;;;;;;26.13;17.33;;;8.70;99.90;;;;;;4915080;29;20393;-66
2024/02/27 10:21:17;;;;;;;25.50;17.83;;;8.70;99.90;;;;;;4918428;29;20088;-65
2024/02/27 10:23:45;;;;;;;23.23;16.83;;;8.80;99.90;;;;;;4916788;29;20052;-65
2024/02/27 10:26:12;;;;;;;25.50;18.58;;;9.00;99.90;;;;;;4922486;29;20071;-65
2024/02/27 10:28:39;;;;;;;31.55;19.40;;;9.10;99.90;;;;;;4921238;29;20068;-66
2024/02/27 10:31:10;;;;;;;25.90;19.08;;;9.10;99.90;;;;;;4915022;29;20723;-65
2024/02/27 10:33:38;;;;;;;27.45;19.83;;;9.20;99.90;;;;;;4896013;29;20071;-66
2024/02/27 10:36:06;;;;;;;29.27;19.67;;;9.40;99.90;;;;;;4913999;29;20504;-66
2024/02/27 10:38:33;;;;;;;27.88;19.52;;;9.60;99.90;;;;;;4916916;29;20055;-65
2024/02/27 10:41:00;;;;;;;33.78;23.00;;;9.70;99.90;;;;;;4917038;29;20116;-66
2024/02/27 10:43:27;;;;;;;28.95;20.67;;;9.70;99.90;;;;;;4917739;29;20504;-65
2024/02/27 10:45:54;;;;;;;26.48;19.13;;;9.60;99.90;;;;;;4915252;29;20619;-65
2024/02/27 10:48:23;;;;;;;27.27;18.85;;;9.70;99.90;;;;;;4922685;29;20135;-65
2024/02/27 10:51:00;;;;;;;33.40;20.33;;;9.90;99.90;;;;;;4924078;29;20109;-65
2024/02/27 10:53:29;;;;;;;29.50;21.05;;;10.20;99.90;;;;;;4921791;29;20150;-66
2024/02/27 10:55:57;;;;;;;25.48;15.80;;;10.40;99.90;;;;;;4923625;29;20063;-66
2024/02/27 10:58:26;;;;;;;24.85;15.30;;;10.00;99.90;;;;;;4923977;29;20048;-66
2024/02/27 11:00:54;;;;;;;24.52;16.35;;;10.10;99.90;;;;;;4917397;29;20059;-65
2024/02/27 11:03:21;;;;;;;22.27;15.77;;;9.80;99.90;;;;;;4921615;29;20039;-66
2024/02/27 11:05:48;;;;;;;25.48;16.45;;;9.80;99.90;;;;;;4923931;29;20051;-66
2024/02/27 11:08:16;;;;;;;25.77;17.02;;;9.80;99.90;;;;;;4922806;29;20417;-66
2024/02/27 11:10:44;;;;;;;24.77;17.38;;;9.70;99.90;;;;;;4920229;29;20055;-65
2024/02/27 11:13:16;;;;;;;21.13;14.70;;;9.80;99.90;;;;;;4922320;29;20158;-66
2024/02/27 11:15:46;;;;;;;25.35;17.52;;;9.80;99.90;;;;;;4919042;29;20465;-66
2024/02/27 11:18:17;;;;;;;24.30;18.00;;;9.90;99.90;;;;;;4923203;29;20051;-66
2024/02/27 11:20:45;;;;;;;23.55;16.27;;;10.20;99.90;;;;;;4923026;29;20045;-65
2024/02/27 11:23:11;;;;;;;23.73;15.68;;;10.40;99.90;;;;;;4922275;29;20100;-66
2024/02/27 11:25:38;;;;;;;24.02;14.45;;;10.40;99.90;;;;;;4922003;29;20092;-66
2024/02/27 11:28:06;;;;;;;23.83;16.73;;;10.30;99.90;;;;;;4920451;29;20135;-66
2024/02/27 11:30:35;;;;;;;25.02;15.93;;;10.30;99.90;;;;;;4916284;29;20056;-66
2024/02/27 11:33:02;;;;;;;25.17;17.13;;;10.40;99.90;;;;;;4932648;29;20493;-66
2024/02/27 11:35:31;;;;;;;26.58;17.70;;;10.70;99.90;;;;;;4919054;29;20086;-66
2024/02/27 11:37:58;;;;;;;27.40;18.05;;;10.90;99.90;;;;;;4919126;29;20058;-66
2024/02/27 11:40:46;;;;;;;21.00;15.50;;;11.10;99.90;;;;;;4924567;29;20477;-66
2024/02/27 11:43:14;;;;;;;20.85;13.95;;;10.80;99.90;;;;;;4922242;29;20040;-65
2024/02/27 11:45:41;;;;;;;21.25;15.07;;;10.70;99.90;;;;;;4916541;29;20048;-65
2024/02/27 11:48:08;;;;;;;26.02;17.13;;;10.40;99.90;;;;;;4925221;29;20565;-65
2024/02/27 11:50:35;;;;;;;24.95;15.57;;;10.40;99.90;;;;;;4915688;29;20060;-65
2024/02/27 11:53:20;;;;;;;23.73;16.38;;;10.50;99.90;;;;;;4921816;29;20138;-65
2024/02/27 11:55:53;;;;;;;20.40;15.27;;;10.40;99.90;;;;;;4921532;29;20511;-65
2024/02/27 11:58:20;;;;;;;21.95;15.25;;;10.30;99.90;;;;;;4915160;29;20072;-65
2024/02/27 12:00:48;;;;;;;20.90;15.23;;;10.40;99.90;;;;;;4918359;29;20108;-66
2024/02/27 12:03:15;;;;;;;24.13;15.85;;;10.40;99.90;;;;;;4925788;29;20043;-65
2024/02/27 12:05:43;;;;;;;25.05;16.30;;;10.50;99.90;;;;;;4920121;29;20442;-65
2024/02/27 12:08:10;;;;;;;25.95;16.15;;;10.60;99.90;;;;;;4918162;29;20052;-65
2024/02/27 12:10:37;;;;;;;19.65;14.63;;;10.80;99.90;;;;;;4919320;29;20515;-65
2024/02/27 12:13:04;;;;;;;20.35;14.18;;;10.90;99.90;;;;;;4922213;29;20053;-65
2024/02/27 12:15:31;;;;;;;15.48;12.15;;;10.90;99.90;;;;;;4917164;29;20048;-65
2024/02/27 12:17:58;;;;;;;17.10;12.07;;;11.00;99.90;;;;;;4921362;29;20054;-65
2024/02/27 12:20:25;;;;;;;20.65;11.00;;;11.00;99.90;;;;;;4925660;29;20054;-65
2024/02/27 12:22:53;;;;;;;14.10;9.75;;;10.70;99.90;;;;;;4919284;29;20051;-65
2024/02/27 12:25:20;;;;;;;14.25;9.27;;;10.60;99.90;;;;;;4917506;29;20048;-65
2024/02/27 12:27:55;;;;;;;16.35;10.02;;;10.40;99.90;;;;;;4925075;29;20183;-65
2024/02/27 12:30:23;;;;;;;14.48;10.45;;;10.50;99.90;;;;;;4912757;29;20464;-65
2024/02/27 12:32:51;;;;;;;16.55;11.07;;;10.60;99.90;;;;;;4915051;29;20051;-65
2024/02/27 12:35:18;;;;;;;14.27;10.88;;;10.70;99.90;;;;;;4921543;29;20062;-66
2024/02/27 12:37:47;;;;;;;18.58;10.80;;;10.70;99.90;;;;;;4916864;29;20052;-65
2024/02/27 12:40:19;;;;;;;14.95;9.93;;;11.10;99.90;;;;;;4924556;29;20043;-65
2024/02/27 12:42:49;;;;;;;15.93;11.50;;;10.80;99.90;;;;;;4917211;29;20428;-65
2024/02/27 12:45:17;;;;;;;16.00;11.13;;;10.80;99.90;;;;;;4915360;29;20052;-65
2024/02/27 12:47:49;;;;;;;18.17;11.00;;;10.90;99.90;;;;;;4920124;29;20395;-65
2024/02/27 12:50:22;;;;;;;17.25;11.27;;;10.80;99.90;;;;;;4908695;29;20139;-65
2024/02/27 12:52:56;;;;;;;17.73;11.75;;;10.80;99.90;;;;;;4921255;29;20444;-65